Time;durP1;ratioP1;P1;durP2;ratioP2;P2;SDS_P1;SDS_P2;PMS_P1;PMS_P2;Temp;Humidity;BMP_temperature;BMP_pressure;BME280_temperature;BME280_humidity;BME280_pressure;Samples;Min_cycle;Max_cycle;Signal;HPM_P1;HPM_P2
2022/01/29 00:01:52;;;;;;;;;16.25;14.00;;;;;20.81;41.91;102679.41;5045780;28;45434;-78
2022/01/29 00:04:17;;;;;;;;;13.75;12.00;;;;;20.78;42.10;102677.66;5079217;28;45330;-78
2022/01/29 00:06:44;;;;;;;;;15.75;14.75;;;;;20.75;42.28;102661.72;5078923;28;57180;-78
2022/01/29 00:09:13;;;;;;;;;23.00;15.25;;;;;20.76;42.14;102665.25;5079153;28;45907;-77
2022/01/29 00:11:39;;;;;;;;;15.00;13.50;;;;;20.75;42.41;102666.13;5080755;27;45480;-78
2022/01/29 00:14:06;;;;;;;;;12.00;11.50;;;;;20.73;42.14;102667.91;5062505;28;45263;-78
2022/01/29 00:16:31;;;;;;;;;13.50;13.00;;;;;20.70;42.27;102668.81;5080509;27;46266;-78
2022/01/29 00:18:57;;;;;;;;;22.00;16.00;;;;;20.73;42.42;102662.59;5078756;28;45405;-78
2022/01/29 00:21:22;;;;;;;;;16.25;13.75;;;;;20.70;42.26;102658.19;5080555;27;45448;-78
2022/01/29 00:23:48;;;;;;;;;16.25;12.75;;;;;20.68;42.38;102648.50;5080277;27;49734;-78
2022/01/29 00:26:13;;;;;;;;;16.50;15.25;;;;;20.72;42.02;102647.56;5080014;27;48604;-77
2022/01/29 00:28:39;;;;;;;;;15.75;13.50;;;;;20.70;42.04;102650.25;5058704;28;45443;-77
2022/01/29 00:31:05;;;;;;;;;15.75;13.00;;;;;20.68;42.11;102637.88;5073415;28;45693;-77
2022/01/29 00:33:30;;;;;;;;;14.75;12.50;;;;;20.69;42.27;102635.22;5080292;27;45400;-77
2022/01/29 00:35:55;;;;;;;;;13.00;10.25;;;;;20.69;41.47;102627.25;5061801;28;46530;-77
2022/01/29 00:38:21;;;;;;;;;18.00;15.75;;;;;20.64;41.86;102631.66;5078789;28;45261;-77
2022/01/29 00:40:47;;;;;;;;;9.75;9.25;;;;;20.65;42.29;102620.16;5078874;28;45367;-77
2022/01/29 00:43:12;;;;;;;;;12.75;10.75;;;;;20.64;42.01;102610.44;5058707;28;45275;-78
2022/01/29 00:45:37;;;;;;;;;16.25;13.75;;;;;20.63;41.71;102619.31;5074697;28;45242;-77
2022/01/29 00:48:03;;;;;;;;;11.50;9.25;;;;;20.65;41.67;102612.22;5065068;28;52919;-77
2022/01/29 00:50:29;;;;;;;;;13.75;13.00;;;;;20.66;41.68;102619.28;5082478;28;45319;-78
2022/01/29 00:52:54;;;;;;;;;18.00;13.50;;;;;20.65;41.82;102614.88;5082574;28;45304;-77
2022/01/29 00:55:19;;;;;;;;;14.75;14.25;;;;;20.69;42.29;102611.34;5083685;27;45253;-77
2022/01/29 00:57:45;;;;;;;;;14.00;12.00;;;;;20.69;41.96;102611.34;5044943;28;45251;-78
2022/01/29 01:00:11;;;;;;;;;13.75;12.50;;;;;20.68;42.02;102606.91;5076037;28;45164;-77
2022/01/29 01:02:37;;;;;;;;;12.25;12.25;;;;;20.67;41.97;102606.91;5083528;27;45510;-77
2022/01/29 01:05:03;;;;;;;;;13.75;13.00;;;;;20.68;42.22;102611.34;5098961;27;47094;-77
2022/01/29 01:07:28;;;;;;;;;11.00;8.25;;;;;20.62;41.44;102596.31;5082159;28;45375;-77
2022/01/29 01:09:54;;;;;;;;;13.50;12.50;;;;;20.68;41.83;102601.59;5082315;28;45485;-78
2022/01/29 01:12:19;;;;;;;;;14.00;13.25;;;;;20.67;41.92;102596.28;5065193;28;45492;-78
2022/01/29 01:14:44;;;;;;;;;15.75;13.00;;;;;20.63;42.08;102592.78;5081594;28;59261;-78
2022/01/29 01:17:10;;;;;;;;;8.25;8.25;;;;;20.64;41.70;102589.22;5082767;27;58069;-77
2022/01/29 01:19:35;;;;;;;;;16.50;13.00;;;;;20.62;41.56;102592.78;5057553;28;46007;-78
2022/01/29 01:22:01;;;;;;;;;13.00;12.50;;;;;20.62;41.88;102593.66;5048155;28;45461;-77
2022/01/29 01:24:26;;;;;;;;;13.00;12.50;;;;;20.61;42.17;102586.59;5064930;28;46871;-78
2022/01/29 01:26:51;;;;;;;;;14.75;11.50;;;;;20.56;41.97;102588.34;5083173;28;45264;-77
2022/01/29 01:29:17;;;;;;;;;15.25;10.75;;;;;20.59;42.29;102597.22;5044638;28;53146;-77
2022/01/29 01:31:44;;;;;;;;;13.50;12.25;;;;;20.59;41.87;102588.38;5059295;28;45279;-78
2022/01/29 01:34:13;;;;;;;;;11.25;11.25;;;;;20.59;42.13;102594.56;5074267;28;46218;-77
2022/01/29 01:36:46;;;;;;;;;13.25;13.25;;;;;20.59;41.75;102597.22;5082953;27;45259;-77
2022/01/29 01:39:14;;;;;;;;;13.25;10.50;;;;;20.59;41.88;102591.03;5083250;27;45422;-77
2022/01/29 01:41:47;;;;;;;;;10.75;10.75;;;;;20.60;41.95;102598.09;5082782;28;45554;-77
2022/01/29 01:44:14;;;;;;;;;11.75;9.00;;;;;20.60;41.87;102593.66;5081485;28;46251;-77
2022/01/29 01:46:39;;;;;;;;;12.25;12.25;;;;;20.62;41.75;102596.31;5082849;27;45483;-77
2022/01/29 01:49:04;;;;;;;;;14.50;13.25;;;;;20.59;41.83;102596.34;5081543;28;45334;-77
2022/01/29 01:51:30;;;;;;;;;15.00;12.50;;;;;20.60;42.37;102596.31;5062551;28;45337;-78
2022/01/29 01:53:55;;;;;;;;;12.75;12.50;;;;;20.62;41.84;102588.34;5037660;28;56456;-77
2022/01/29 01:56:21;;;;;;;;;11.00;10.00;;;;;20.56;42.13;102580.41;5067638;28;45319;-77
2022/01/29 01:58:46;;;;;;;;;13.25;11.75;;;;;20.60;42.55;102585.72;5081173;28;48294;-77
2022/01/29 02:01:12;;;;;;;;;12.00;11.00;;;;;20.58;41.68;102579.50;5082614;27;45461;-78
2022/01/29 02:03:37;;;;;;;;;11.75;11.25;;;;;20.58;42.56;102575.97;5082631;27;45474;-77
2022/01/29 02:06:03;;;;;;;;;10.75;10.50;;;;;20.59;41.68;102575.09;5080867;28;55678;-77
2022/01/29 02:08:28;;;;;;;;;14.75;12.75;;;;;20.57;42.04;102577.75;5081510;28;45330;-77
2022/01/29 02:11:01;;;;;;;;;12.25;12.25;;;;;20.60;42.31;102572.44;5082514;27;45398;-77
2022/01/29 02:13:28;;;;;;;;;13.25;11.25;;;;;20.59;42.14;102564.50;5067436;27;46552;-77
2022/01/29 02:15:55;;;;;;;;;14.00;10.25;;;;;20.55;42.05;102558.31;5062103;28;45224;-78
2022/01/29 02:18:20;;;;;;;;;12.75;12.00;;;;;20.55;42.18;102571.56;5069669;28;45208;-77
2022/01/29 02:20:46;;;;;;;;;13.75;12.25;;;;;20.53;41.78;102553.91;5080952;28;45547;-77
2022/01/29 02:23:11;;;;;;;;;10.25;9.50;;;;;20.53;42.57;102556.53;5080810;28;53143;-77
2022/01/29 02:25:49;;;;;;;;;11.50;10.00;;;;;20.53;42.29;102560.09;5064116;28;45407;-78
2022/01/29 02:28:15;;;;;;;;;10.00;9.00;;;;;20.50;42.23;102549.50;5082295;28;45329;-77
2022/01/29 02:30:42;;;;;;;;;13.50;11.75;;;;;20.51;42.39;102542.41;5080994;28;45296;-77
2022/01/29 02:33:11;;;;;;;;;10.00;10.00;;;;;20.51;42.37;102540.63;5080833;28;45351;-77
2022/01/29 02:35:41;;;;;;;;;9.00;8.25;;;;;20.54;42.17;102539.75;5064269;27;45390;-77
2022/01/29 02:38:07;;;;;;;;;9.75;8.00;;;;;20.50;42.19;102530.94;5082292;27;45313;-77
2022/01/29 02:40:36;;;;;;;;;10.25;9.75;;;;;20.50;42.06;102524.72;5081987;27;45451;-78
2022/01/29 02:43:18;;;;;;;;;11.25;8.50;;;;;20.49;41.92;102513.22;5080571;28;47704;-77
2022/01/29 02:45:44;;;;;;;;;12.25;11.25;;;;;20.53;42.03;102524.72;5081872;27;45219;-78
2022/01/29 02:48:10;;;;;;;;;9.00;8.75;;;;;20.54;41.81;102521.16;5082074;27;45289;-78
2022/01/29 02:50:36;;;;;;;;;11.00;8.75;;;;;20.51;41.76;102515.88;5080378;28;45262;-77
2022/01/29 02:53:01;;;;;;;;;12.50;10.50;;;;;20.55;42.14;102514.97;5080688;28;46288;-78
2022/01/29 02:55:28;;;;;;;;;3.75;3.75;;;;;20.56;41.86;102506.13;5080312;28;46789;-78
2022/01/29 02:57:54;;;;;;;;;9.25;8.25;;;;;20.55;41.89;102499.06;5081905;27;45237;-77
2022/01/29 03:00:19;;;;;;;;;9.00;7.50;;;;;20.53;42.06;102495.53;5080482;28;45319;-77
2022/01/29 03:02:45;;;;;;;;;16.25;10.00;;;;;20.53;42.06;102488.47;5059589;28;64475;-77
2022/01/29 03:05:10;;;;;;;;;12.50;9.25;;;;;20.53;42.34;102487.59;5073085;28;59638;-77
2022/01/29 03:07:37;;;;;;;;;12.75;8.50;;;;;20.52;42.00;102485.81;5079259;28;48521;-78
2022/01/29 03:10:03;;;;;;;;;8.75;8.75;;;;;20.46;42.20;102475.22;5080236;28;45433;-78
2022/01/29 03:12:28;;;;;;;;;10.25;10.00;;;;;20.49;42.21;102472.56;5081606;27;46440;-77
2022/01/29 03:14:54;;;;;;;;;9.25;7.50;;;;;20.49;42.07;102467.25;5081564;27;45224;-77
2022/01/29 03:17:19;;;;;;;;;8.50;7.50;;;;;20.50;41.79;102467.25;5081648;27;45219;-78
2022/01/29 03:19:44;;;;;;;;;8.50;7.00;;;;;20.50;41.59;102476.97;5080018;28;45379;-78
2022/01/29 03:22:10;;;;;;;;;8.25;7.50;;;;;20.47;42.33;102469.91;5063063;28;47233;-78
2022/01/29 03:24:35;;;;;;;;;10.25;7.75;;;;;20.48;42.11;102473.44;5042940;28;45261;-77
2022/01/29 03:27:01;;;;;;;;;8.50;7.75;;;;;20.48;41.97;102476.09;5080646;28;57093;-77
2022/01/29 03:29:26;;;;;;;;;8.50;8.50;;;;;20.49;42.07;102475.19;5079985;28;45520;-78
2022/01/29 03:31:51;;;;;;;;;6.75;6.75;;;;;20.47;42.10;102474.34;5062852;28;45428;-78
2022/01/29 03:34:17;;;;;;;;;10.00;8.00;;;;;20.46;41.98;102469.91;5079588;28;52684;-78
2022/01/29 03:36:42;;;;;;;;;10.00;9.25;;;;;20.47;41.93;102463.72;5080771;27;57415;-77
2022/01/29 03:39:08;;;;;;;;;8.50;8.50;;;;;20.48;41.97;102462.84;5080006;28;45455;-77
2022/01/29 03:41:33;;;;;;;;;7.00;7.00;;;;;20.48;42.13;102473.44;5080675;27;46328;-77
2022/01/29 03:44:03;;;;;;;;;8.00;8.00;;;;;20.51;42.00;102486.72;5062583;28;54079;-78
2022/01/29 03:46:29;;;;;;;;;9.00;8.00;;;;;20.53;42.07;102484.94;5081074;27;45204;-77
2022/01/29 03:48:54;;;;;;;;;7.50;6.25;;;;;20.53;42.22;102479.63;5079327;28;45310;-78
2022/01/29 03:51:20;;;;;;;;;9.00;8.00;;;;;20.55;42.20;102477.84;5080991;27;45353;-78
2022/01/29 03:53:47;;;;;;;;;4.50;3.00;;;;;20.54;41.73;102476.06;5079794;28;45252;-77
2022/01/29 03:56:13;;;;;;;;;8.75;8.75;;;;;20.56;41.94;102461.91;5080885;27;45232;-77
2022/01/29 03:58:39;;;;;;;;;10.00;7.50;;;;;20.56;42.16;102469.88;5079469;28;45472;-77
2022/01/29 04:01:04;;;;;;;;;9.75;8.00;;;;;20.55;41.62;102467.22;5079368;28;45456;-77
2022/01/29 04:03:29;;;;;;;;;8.25;6.50;;;;;20.52;42.25;102468.13;5078995;28;61775;-77
2022/01/29 04:05:55;;;;;;;;;8.00;8.00;;;;;20.51;41.97;102469.03;5078816;28;55864;-77
2022/01/29 04:08:20;;;;;;;;;9.00;7.00;;;;;20.49;41.69;102462.81;5079440;28;45570;-77
2022/01/29 04:10:47;;;;;;;;;8.50;7.50;;;;;20.50;42.19;102472.56;5062382;28;45335;-77
2022/01/29 04:13:14;;;;;;;;;8.75;8.75;;;;;20.49;41.86;102468.13;5062684;28;45274;-78
2022/01/29 04:15:40;;;;;;;;;8.00;7.00;;;;;20.50;41.88;102469.00;5081046;27;45248;-77
2022/01/29 04:18:05;;;;;;;;;8.00;7.00;;;;;20.50;42.15;102461.03;5075852;28;45598;-78
2022/01/29 04:20:31;;;;;;;;;6.75;6.75;;;;;20.49;42.21;102456.63;5080166;27;46436;-77
2022/01/29 04:22:56;;;;;;;;;10.25;7.25;;;;;20.48;42.24;102457.53;5078640;28;60357;-77
2022/01/29 04:25:23;;;;;;;;;8.75;8.75;;;;;20.50;42.58;102463.69;5078942;28;46230;-77
2022/01/29 04:27:49;;;;;;;;;7.50;7.00;;;;;20.49;42.33;102459.28;5079315;28;45471;-77
2022/01/29 04:30:28;;;;;;;;;7.75;6.75;;;;;20.49;42.37;102454.84;5058771;28;45413;-77
2022/01/29 04:32:59;;;;;;;;;13.50;9.00;;;;;20.48;42.02;102461.06;5074887;28;45232;-77
2022/01/29 04:35:24;;;;;;;;;8.00;7.75;;;;;20.48;42.21;102460.19;5079127;28;45414;-77
2022/01/29 04:37:50;;;;;;;;;9.50;8.00;;;;;20.50;42.25;102471.66;5080280;27;45292;-77
2022/01/29 04:40:15;;;;;;;;;8.50;7.25;;;;;20.48;42.23;102470.78;5080039;27;46294;-77
2022/01/29 04:42:41;;;;;;;;;7.50;6.00;;;;;20.49;42.14;102467.25;5062008;28;45431;-77
2022/01/29 04:45:06;;;;;;;;;4.25;4.00;;;;;20.49;42.26;102462.81;5045565;28;45335;-77
2022/01/29 04:47:32;;;;;;;;;8.75;7.75;;;;;20.51;41.98;102454.88;5045056;28;45454;-77
2022/01/29 04:49:57;;;;;;;;;8.75;7.50;;;;;20.51;42.07;102452.22;5079695;27;51886;-77
2022/01/29 04:52:22;;;;;;;;;6.25;5.50;;;;;20.50;41.87;102448.69;5079127;28;45327;-77
2022/01/29 04:54:48;;;;;;;;;6.00;6.00;;;;;20.50;42.28;102454.00;5078473;28;53860;-77
2022/01/29 04:57:13;;;;;;;;;7.75;7.00;;;;;20.52;42.22;102457.53;5059994;28;45454;-77
2022/01/29 04:59:39;;;;;;;;;8.50;6.25;;;;;20.53;42.40;102458.41;5078863;28;45231;-77
2022/01/29 05:02:04;;;;;;;;;9.00;7.00;;;;;20.54;42.37;102452.19;5079798;27;45225;-77
2022/01/29 05:04:29;;;;;;;;;6.75;5.25;;;;;20.51;42.49;102455.75;5080227;27;45368;-77
2022/01/29 05:06:55;;;;;;;;;7.75;7.75;;;;;20.53;42.18;102453.97;5080097;27;45295;-77
2022/01/29 05:09:20;;;;;;;;;7.75;6.00;;;;;20.52;42.48;102446.91;5079283;27;60857;-77
2022/01/29 05:11:49;;;;;;;;;7.50;6.75;;;;;20.49;42.16;102444.25;5061614;28;45166;-77
2022/01/29 05:14:29;;;;;;;;;7.75;7.50;;;;;20.53;42.35;102450.44;5080109;27;45326;-77
2022/01/29 05:27:50;;;;;;;;;6.00;6.00;;;;;20.48;42.46;102457.53;5079797;28;45353;-77
2022/01/29 05:30:16;;;;;;;;;5.00;5.00;;;;;20.49;42.45;102451.31;5059359;28;48206;-77
2022/01/29 05:32:41;;;;;;;;;4.50;4.50;;;;;20.46;42.34;102454.88;5075730;28;60448;-77
2022/01/29 05:35:07;;;;;;;;;6.50;5.75;;;;;20.48;42.62;102470.78;5081790;28;45220;-77
2022/01/29 05:37:33;;;;;;;;;6.50;6.50;;;;;20.48;42.55;102461.06;5083055;27;45211;-77
2022/01/29 05:39:58;;;;;;;;;8.00;5.50;;;;;20.48;42.43;102454.88;5081547;28;45468;-77
2022/01/29 05:42:23;;;;;;;;;6.25;6.00;;;;;20.50;42.15;102459.31;5082930;27;45266;-77
2022/01/29 05:44:49;;;;;;;;;8.00;7.00;;;;;20.49;42.29;102454.84;5082879;27;45278;-77
2022/01/29 05:47:14;;;;;;;;;7.00;6.50;;;;;20.49;42.10;102446.03;5060774;28;56950;-77
2022/01/29 05:49:40;;;;;;;;;7.50;7.50;;;;;20.44;42.20;102435.44;5080215;28;55745;-77
2022/01/29 05:52:05;;;;;;;;;7.50;6.75;;;;;20.51;42.13;102449.56;5082988;27;45248;-77
2022/01/29 05:54:31;;;;;;;;;6.50;6.00;;;;;20.49;41.94;102446.91;5044495;28;45520;-77
2022/01/29 05:56:57;;;;;;;;;5.00;5.00;;;;;20.50;42.08;102442.47;5037712;28;54061;-77
2022/01/29 05:59:22;;;;;;;;;8.75;6.50;;;;;20.49;42.04;102446.91;5047743;28;47337;-77
2022/01/29 06:01:48;;;;;;;;;6.25;6.00;;;;;20.49;42.39;102443.38;5064417;28;45643;-77
2022/01/29 06:04:13;;;;;;;;;5.25;5.25;;;;;20.50;42.40;102437.19;5080717;28;54694;-77
2022/01/29 06:06:38;;;;;;;;;8.50;7.00;;;;;20.48;42.36;102441.63;5081246;28;47693;-77
2022/01/29 06:09:04;;;;;;;;;7.00;7.00;;;;;20.48;42.18;102444.25;5060284;28;60894;-77
2022/01/29 06:11:33;;;;;;;;;6.25;4.00;;;;;20.49;42.14;102435.41;5052948;28;45301;-77
2022/01/29 06:14:01;;;;;;;;;7.00;6.25;;;;;20.44;42.25;102431.91;5074288;28;51670;-77
2022/01/29 06:16:27;;;;;;;;;6.75;6.00;;;;;20.45;42.25;102431.03;5040942;28;45590;-77
2022/01/29 06:18:52;;;;;;;;;6.50;6.50;;;;;20.43;42.46;102427.47;5081989;27;45368;-77
2022/01/29 06:21:18;;;;;;;;;4.25;4.25;;;;;20.44;42.54;102435.44;5082365;27;45440;-77
2022/01/29 06:23:44;;;;;;;;;9.00;6.75;;;;;20.40;42.12;102441.59;5062504;28;45319;-77
2022/01/29 06:26:10;;;;;;;;;8.00;6.00;;;;;20.40;42.68;102435.44;5060696;28;45510;-78
2022/01/29 06:28:36;;;;;;;;;6.25;6.25;;;;;20.38;42.78;102437.22;5061888;28;45432;-77
2022/01/29 06:31:02;;;;;;;;;5.75;5.00;;;;;20.41;42.54;102455.75;5043878;28;45392;-78
2022/01/29 06:33:28;;;;;;;;;6.50;5.50;;;;;20.39;43.31;102444.28;5061991;28;45239;-82
2022/01/29 06:35:53;;;;;;;;;4.00;4.00;;;;;20.49;43.71;102446.03;5046277;28;45495;-77
2022/01/29 06:38:19;;;;;;;;;6.50;4.00;;;;;20.57;44.01;102437.13;5043986;28;45394;-78
2022/01/29 06:40:44;;;;;;;;;5.75;5.00;;;;;20.71;44.20;102442.38;5043717;28;45430;-85
2022/01/29 06:43:10;;;;;;;;;5.75;5.75;;;;;20.81;44.85;102436.13;5027373;28;45243;-81
2022/01/29 06:45:36;;;;;;;;;4.00;3.75;;;;;20.93;44.66;102445.78;5027282;28;45388;-72
2022/01/29 06:48:02;;;;;;;;;6.25;4.50;;;;;21.02;44.99;102442.19;5043503;28;46679;-76
2022/01/29 06:50:28;;;;;;;;;4.25;4.25;;;;;21.09;45.14;102434.16;5026880;28;45360;-75
2022/01/29 06:52:53;;;;;;;;;5.00;4.50;;;;;21.17;45.14;102434.09;5027017;28;45363;-74
2022/01/29 06:55:19;;;;;;;;;4.00;2.75;;;;;21.25;45.00;102434.06;5043468;28;46134;-76
2022/01/29 06:57:44;;;;;;;;;3.75;3.50;;;;;21.26;45.13;102426.06;5045379;28;47898;-78
2022/01/29 07:00:10;;;;;;;;;3.00;3.00;;;;;21.30;44.91;102421.66;5063561;28;45373;-77
2022/01/29 07:02:35;;;;;;;;;4.75;4.75;;;;;21.35;44.43;102431.34;5043435;28;45535;-71
2022/01/29 07:05:02;;;;;;;;;5.00;3.75;;;;;21.38;44.93;102431.31;5051370;28;59771;-71
2022/01/29 07:07:28;;;;;;;;;3.50;3.00;;;;;21.43;45.02;102433.94;5045134;28;47303;-72
2022/01/29 07:09:53;;;;;;;;;3.50;3.50;;;;;21.43;45.12;102432.16;5080375;28;45285;-72
2022/01/29 07:12:18;;;;;;;;;6.00;6.00;;;;;21.48;45.97;102444.53;5060010;27;45189;-70
2022/01/29 07:14:44;;;;;;;;;4.50;4.50;;;;;21.49;46.11;102431.22;5073586;28;45240;-71
2022/01/29 07:17:10;;;;;;;;;5.75;4.25;;;;;21.52;45.86;102439.16;5063222;28;46447;-71
2022/01/29 07:19:36;;;;;;;;;5.50;4.00;;;;;21.54;45.79;102439.13;5063154;28;45336;-71
2022/01/29 07:22:01;;;;;;;;;5.00;3.75;;;;;21.54;45.44;102425.84;5063340;28;45181;-71
2022/01/29 07:24:27;;;;;;;;;8.50;4.00;;;;;21.55;45.99;102417.00;5063110;28;45436;-71
2022/01/29 07:26:52;;;;;;;;;5.25;4.00;;;;;21.55;45.25;102422.34;5059669;28;45485;-70
2022/01/29 07:29:18;;;;;;;;;5.00;4.00;;;;;21.55;45.59;102423.22;5071228;28;45359;-70
2022/01/29 07:31:43;;;;;;;;;3.00;3.00;;;;;21.56;45.26;102421.44;5062619;28;57547;-71
2022/01/29 07:34:09;;;;;;;;;4.00;4.00;;;;;21.56;45.35;102424.09;5062424;28;58965;-71
2022/01/29 07:36:34;;;;;;;;;5.75;3.75;;;;;21.56;45.35;102421.44;5079406;28;55841;-70
2022/01/29 07:38:59;;;;;;;;;4.00;3.00;;;;;21.55;45.59;102422.34;5062907;28;45809;-70
2022/01/29 07:41:25;;;;;;;;;2.50;2.50;;;;;21.56;44.94;102426.75;5062886;28;45369;-71
2022/01/29 07:43:50;;;;;;;;;5.00;5.00;;;;;21.55;44.45;102436.50;5062849;28;45521;-70
2022/01/29 07:46:16;;;;;;;;;6.75;5.50;;;;;21.55;45.41;102438.28;5042260;28;54593;-78
2022/01/29 07:48:41;;;;;;;;;4.00;4.00;;;;;21.55;45.82;102440.94;5036233;28;45304;-73
2022/01/29 07:51:07;;;;;;;;;4.25;4.00;;;;;21.57;46.12;102433.81;5059592;28;45331;-72
2022/01/29 07:53:32;;;;;;;;;5.00;5.00;;;;;21.57;46.01;102426.72;5058982;28;45283;-71
2022/01/29 07:55:58;;;;;;;;;5.50;4.00;;;;;21.58;45.46;102432.91;5079460;28;46024;-72
2022/01/29 07:58:23;;;;;;;;;4.50;4.50;;;;;21.58;45.73;102428.47;5079329;28;53640;-71
2022/01/29 08:00:48;;;;;;;;;6.25;4.50;;;;;21.60;46.10;102428.47;5041835;28;58956;-72
2022/01/29 08:03:14;;;;;;;;;5.25;4.50;;;;;21.60;45.72;102428.47;5079301;28;55431;-72
2022/01/29 08:05:39;;;;;;;;;4.75;3.25;;;;;21.61;46.01;102427.56;5058784;28;47927;-71
2022/01/29 08:08:05;;;;;;;;;4.50;4.50;;;;;21.63;45.87;102428.41;5069948;28;45260;-71
2022/01/29 08:10:30;;;;;;;;;4.00;4.00;;;;;21.61;46.23;102422.25;5096369;27;45912;-72
2022/01/29 08:12:55;;;;;;;;;5.00;3.00;;;;;21.61;46.34;102428.44;5079633;28;45281;-71
2022/01/29 08:15:21;;;;;;;;;5.00;5.00;;;;;21.62;46.74;102414.25;5062177;28;48880;-73
2022/01/29 08:17:46;;;;;;;;;7.00;3.50;;;;;21.63;46.60;102429.34;5062459;28;45303;-72
2022/01/29 08:20:12;;;;;;;;;6.25;3.00;;;;;21.62;45.48;102427.53;5078846;28;45361;-75
2022/01/29 08:22:38;;;;;;;;;10.75;8.75;;;;;21.56;46.28;102419.66;5078994;28;45322;-71
2022/01/29 08:25:04;;;;;;;;;4.50;4.50;;;;;21.54;46.00;102418.75;5079159;28;46432;-73
2022/01/29 08:27:30;;;;;;;;;5.50;4.75;;;;;21.51;46.56;102413.50;5080408;27;45385;-73
2022/01/29 08:29:55;;;;;;;;;3.75;3.75;;;;;21.45;46.37;102414.41;5080492;28;45339;-74
2022/01/29 08:32:21;;;;;;;;;5.00;5.00;;;;;21.41;46.03;102417.13;5061688;28;62385;-72
2022/01/29 08:34:47;;;;;;;;;3.00;3.00;;;;;21.35;44.88;102418.06;5079940;27;45560;-71
2022/01/29 08:37:12;;;;;;;;;8.00;4.00;;;;;21.27;45.21;102425.22;5059047;28;45213;-72
2022/01/29 08:39:38;;;;;;;;;3.25;2.75;;;;;21.22;45.29;102423.47;5076043;28;47899;-72
2022/01/29 08:42:06;;;;;;;;;3.75;3.00;;;;;21.16;44.26;102427.91;5080329;27;45196;-72
2022/01/29 08:44:43;;;;;;;;;4.00;3.25;;;;;21.08;44.67;102428.88;5078746;28;46894;-72
2022/01/29 08:47:11;;;;;;;;;4.50;4.00;;;;;21.04;44.61;102424.50;5078844;28;45456;-72
2022/01/29 08:49:38;;;;;;;;;2.75;2.75;;;;;21.01;44.87;102421.84;5065245;28;45301;-72
2022/01/29 08:52:04;;;;;;;;;3.00;3.00;;;;;20.99;44.29;102419.19;5080238;27;45270;-72
2022/01/29 08:54:29;;;;;;;;;3.25;2.25;;;;;20.98;44.45;102414.78;5079755;27;45807;-72
2022/01/29 08:56:55;;;;;;;;;4.00;2.00;;;;;20.98;44.35;102422.75;5076966;28;56270;-72
2022/01/29 08:59:20;;;;;;;;;3.00;3.00;;;;;20.96;44.16;102410.38;5077400;28;46765;-72
2022/01/29 09:01:45;;;;;;;;;3.50;1.50;;;;;20.94;43.63;102417.47;5080024;27;45247;-72
2022/01/29 09:04:11;;;;;;;;;5.00;3.00;;;;;20.88;43.81;102415.75;5079777;27;46251;-72
2022/01/29 09:06:36;;;;;;;;;4.00;2.00;;;;;20.84;44.09;102406.03;5064968;28;45223;-72
2022/01/29 09:09:02;;;;;;;;;2.75;1.50;;;;;20.82;43.99;102414.00;5083718;27;45706;-71
2022/01/29 09:11:27;;;;;;;;;3.00;2.50;;;;;20.76;44.22;102408.75;5065407;28;45470;-72
2022/01/29 09:13:53;;;;;;;;;2.25;2.00;;;;;20.78;44.11;102411.41;5044899;28;48200;-72
2022/01/29 09:16:18;;;;;;;;;3.00;2.00;;;;;20.76;44.14;102414.06;5072947;28;57545;-72
2022/01/29 09:18:44;;;;;;;;;2.00;2.00;;;;;20.80;44.10;102417.56;5083192;27;45394;-72
2022/01/29 09:21:09;;;;;;;;;6.25;2.25;;;;;20.74;43.55;102410.50;5081795;28;49527;-72
2022/01/29 09:23:35;;;;;;;;;2.50;2.00;;;;;20.73;44.09;102414.06;5065132;28;46284;-72
2022/01/29 09:26:01;;;;;;;;;1.75;1.75;;;;;20.74;44.04;102418.47;5083198;28;45346;-72
2022/01/29 09:28:27;;;;;;;;;3.00;1.75;;;;;20.71;43.80;102409.66;5061848;28;45305;-72
2022/01/29 09:30:52;;;;;;;;;1.75;1.75;;;;;20.71;44.10;102409.66;5052486;28;45491;-72
2022/01/29 09:33:18;;;;;;;;;2.25;1.00;;;;;20.70;43.58;102406.13;5061254;28;47041;-72
2022/01/29 09:35:43;;;;;;;;;1.50;1.50;;;;;20.71;43.47;102401.72;5061252;28;45255;-72
2022/01/29 09:38:09;;;;;;;;;1.00;1.00;;;;;20.66;43.46;102395.53;5061742;28;45335;-72
2022/01/29 09:40:35;;;;;;;;;2.00;2.00;;;;;20.65;43.74;102405.28;5071802;28;45290;-72
2022/01/29 09:43:02;;;;;;;;;2.25;2.25;;;;;20.63;43.60;102403.53;5081696;28;46461;-73
2022/01/29 09:45:28;;;;;;;;;1.75;1.75;;;;;20.61;43.62;102392.94;5081780;28;45275;-72
2022/01/29 09:48:01;;;;;;;;;3.75;3.00;;;;;20.60;43.43;102399.13;5081653;28;45508;-72
2022/01/29 09:50:31;;;;;;;;;2.00;2.00;;;;;20.59;43.36;102405.31;5081278;28;45520;-71
2022/01/29 09:52:57;;;;;;;;;2.00;2.00;;;;;20.61;43.43;102395.59;5065636;28;47238;-73
2022/01/29 09:55:23;;;;;;;;;1.25;1.25;;;;;20.59;43.59;102400.03;5044380;28;45302;-72
2022/01/29 09:57:48;;;;;;;;;2.50;2.50;;;;;20.57;43.27;102391.16;5046197;28;45261;-72
2022/01/29 10:00:14;;;;;;;;;2.00;2.00;;;;;20.60;43.72;102404.44;5064532;28;45462;-73
2022/01/29 10:02:40;;;;;;;;;1.50;1.00;;;;;20.64;43.29;102410.59;5047548;28;47120;-73
2022/01/29 10:05:05;;;;;;;;;2.50;2.00;;;;;20.62;43.25;102413.25;5046966;28;58653;-73
2022/01/29 10:07:31;;;;;;;;;2.00;2.00;;;;;20.63;43.53;102412.34;5064663;28;45246;-73
2022/01/29 10:09:58;;;;;;;;;0.50;0.50;;;;;20.62;43.30;102421.22;5082509;27;45462;-73
2022/01/29 10:12:26;;;;;;;;;1.50;1.50;;;;;20.58;43.06;102416.81;5061001;28;46253;-73
2022/01/29 10:14:52;;;;;;;;;2.25;2.25;;;;;20.55;43.52;102425.66;5060902;28;45265;-73
2022/01/29 10:17:39;;;;;;;;;4.00;3.00;;;;;20.55;43.43;102419.47;5082122;28;45292;-73
2022/01/29 10:20:20;;;;;;;;;3.50;2.00;;;;;20.49;43.03;102416.84;5077851;28;45283;-73
2022/01/29 10:22:47;;;;;;;;;3.00;2.25;;;;;20.44;43.50;102411.59;5082199;27;46051;-73
2022/01/29 10:25:15;;;;;;;;;2.00;2.00;;;;;20.45;43.56;102415.13;5082046;27;45410;-73
2022/01/29 10:28:03;;;;;;;;;2.75;2.75;;;;;20.45;43.59;102415.13;5082576;27;45274;-73
2022/01/29 10:30:30;;;;;;;;;2.50;2.50;;;;;20.43;43.57;102415.13;5081345;28;46188;-73
2022/01/29 10:33:31;;;;;;;;;3.00;2.25;;;;;20.44;43.51;102411.59;5081003;28;45571;-73
2022/01/29 10:35:59;;;;;;;;;1.25;1.25;;;;;20.42;43.34;102415.09;5068412;28;45555;-73
2022/01/29 10:38:47;;;;;;;;;2.75;2.75;;;;;20.43;43.74;102411.56;5060886;28;45398;-73
2022/01/29 10:41:31;;;;;;;;;1.50;1.50;;;;;20.44;43.88;102406.28;5078015;28;45227;-73
2022/01/29 10:44:11;;;;;;;;;2.00;2.00;;;;;20.44;43.59;102408.94;5080235;28;46270;-74
2022/01/29 10:46:54;;;;;;;;;2.25;2.00;;;;;20.43;43.28;102404.53;5082099;27;45420;-73
2022/01/29 10:49:32;;;;;;;;;3.25;2.00;;;;;20.38;43.62;102398.31;5080832;28;45428;-73
2022/01/29 10:52:09;;;;;;;;;2.75;2.75;;;;;20.43;43.50;102399.22;5080896;28;45357;-73
2022/01/29 10:54:36;;;;;;;;;0.00;0.00;;;;;20.41;43.44;102397.41;5080487;27;46154;-73
2022/01/29 10:57:11;;;;;;;;;1.00;1.00;;;;;20.41;43.49;102402.72;5081933;27;45527;-73
2022/01/29 10:59:53;;;;;;;;;3.00;2.00;;;;;20.42;43.28;102399.19;5068175;28;46523;-73
2022/01/29 11:02:20;;;;;;;;;2.00;2.00;;;;;20.41;43.19;102408.00;5046888;28;45707;-75
2022/01/29 11:04:48;;;;;;;;;2.75;2.00;;;;;20.37;43.50;102403.63;5080525;28;47307;-74
2022/01/29 11:07:18;;;;;;;;;8.00;6.00;;;;;20.35;43.51;102402.75;5080851;28;45277;-77
2022/01/29 11:09:52;;;;;;;;;293.00;258.00;;;;;20.38;44.97;102405.38;5081695;27;45343;-74
2022/01/29 11:12:28;;;;;;;;;234.75;214.00;;;;;20.41;45.73;102403.59;5083805;28;45385;-78
2022/01/29 11:15:27;;;;;;;;;;;;;;;;;;;;;
2022/01/29 11:17:53;;;;;;;;;109.75;102.75;;;;;20.45;45.67;102400.09;5063640;28;73105;-74
2022/01/29 11:20:21;;;;;;;;;83.25;74.50;;;;;20.46;45.31;102400.97;5057522;28;45386;-74
2022/01/29 11:22:56;;;;;;;;;69.25;54.50;;;;;20.43;45.18;102400.97;5052076;28;45570;-76
2022/01/29 11:25:34;;;;;;;;;77.50;63.50;;;;;20.45;45.98;102402.72;5060184;28;46845;-75
2022/01/29 11:28:16;;;;;;;;;72.25;56.75;;;;;20.58;46.22;102404.41;5061191;28;46903;-75
2022/01/29 11:31:18;;;;;;;;;64.00;50.75;;;;;20.75;46.70;102417.59;5043940;28;45293;-80
2022/01/29 11:34:32;;;;;;;;;;;;;;;;;;;;;
2022/01/29 11:37:27;;;;;;;;;48.50;39.25;;;;;20.97;46.49;102414.81;5078931;27;73943;-80